Tutty Cenac — WDH6395 — position and weather

sailwx.info

Track history (hours):
 
Tides and Currents Weather Stations Pressure Air Temp Water Temp Dewpoint Dewpoint Depression Visibility Wind Speed Wind Dir Waves Ship Positions

Tutty Cenac

Owner: Cenac Marine Services, Houma, LA. More information available from US FCC via Universal Licensing System and Coast Guard Vessel Documentation Center.

Last reported at 2017-Oct-19 22:00 UTC. Time now 2017-Oct-19 22:04 UTC.
Position N 29°34' W 090°43'.

Length 22 m; draft 3 m.

Type: Tug. MMSI: 367637490.

Date/timePositionNaut miles runAvg speedWind from/ knotsBaromVisibWave heightAir tempDewpointWater temp
2017-Oct-19 22:00N 29°34' W 090°43'0 0.0
2017-Oct-19 21:30N 29°34' W 090°43'0 0.0
2017-Oct-19 21:00N 29°34' W 090°43'2 4.5
2017-Oct-19 20:30N 29°36' W 090°43'2 4.5
2017-Oct-19 20:00N 29°36' W 090°40'3 2.7
2017-Oct-19 18:49N 29°35' W 090°37'0 0.0
2017-Oct-19 14:49N 29°35' W 090°37'1 4.2
2017-Oct-19 14:30N 29°35' W 090°38'3 6.5
2017-Oct-19 14:00N 29°37' W 090°41'1 1.8
2017-Oct-19 13:28N 29°37' W 090°43'0 0.0
2017-Oct-19 12:58N 29°37' W 090°43'0 0.0
2017-Oct-19 12:28N 29°37' W 090°43'0 0.0
2017-Oct-19 11:58N 29°37' W 090°43'0 0.0
2017-Oct-19 11:28N 29°37' W 090°43'0 0.0
2017-Oct-19 10:58N 29°37' W 090°43'0 0.0
2017-Oct-19 10:28N 29°37' W 090°43'0 0.0
2017-Oct-19 09:58N 29°37' W 090°43'0 0.0
2017-Oct-19 09:28N 29°37' W 090°43'0 0.0
2017-Oct-19 08:58N 29°37' W 090°43'0 0.0
2017-Oct-19 08:28N 29°37' W 090°43'0 0.0
2017-Oct-19 07:58N 29°37' W 090°43'0 0.0
2017-Oct-19 07:28N 29°37' W 090°43'0 0.0
2017-Oct-19 06:58N 29°37' W 090°43'0 0.0
2017-Oct-19 06:28N 29°37' W 090°43'0 0.0
2017-Oct-19 05:58N 29°37' W 090°43'0 0.0
2017-Oct-19 05:28N 29°37' W 090°43'0 0.0
2017-Oct-19 04:58N 29°37' W 090°43'0 0.0
2017-Oct-19 04:28N 29°37' W 090°43'0 0.0
2017-Oct-19 03:58N 29°37' W 090°43'0 0.0
2017-Oct-19 03:28N 29°37' W 090°43'0 0.0
2017-Oct-19 02:58N 29°37' W 090°43'0 0.0
2017-Oct-19 02:28N 29°37' W 090°43'0 0.0
2017-Oct-19 01:58N 29°37' W 090°43'0 0.0
2017-Oct-19 01:28N 29°37' W 090°43'1 1.8
2017-Oct-19 01:00N 29°37' W 090°42'3 6.5
2017-Oct-19 00:30N 29°35' W 090°38'2 3.0
2017-Oct-19 00:00N 29°35' W 090°37'0 0.0
2017-Oct-18 23:30N 29°35' W 090°37'0 0.1
2017-Oct-18 22:51N 29°35' W 090°37'0 0.1
2017-Oct-18 22:29N 29°35' W 090°37'0 0.0
2017-Oct-18 21:59N 29°35' W 090°37'0 0.0
2017-Oct-18 21:29N 29°35' W 090°37'0 0.0
2017-Oct-18 20:59N 29°35' W 090°37'0 0.0
2017-Oct-18 20:29N 29°35' W 090°37'0 0.0
2017-Oct-18 19:59N 29°35' W 090°37'0 0.0
2017-Oct-18 19:29N 29°35' W 090°37'0 0.0
2017-Oct-18 18:59N 29°35' W 090°37'0 0.0
2017-Oct-18 18:29N 29°35' W 090°37'0 0.0
2017-Oct-18 17:59N 29°35' W 090°37'0 0.0
2017-Oct-18 17:29N 29°35' W 090°37'0 0.0
2017-Oct-18 16:59N 29°35' W 090°37'0 0.0
2017-Oct-18 16:29N 29°35' W 090°37'0 0.0
2017-Oct-18 15:59N 29°35' W 090°37'0 0.0
2017-Oct-18 15:29N 29°35' W 090°37'0 0.0
2017-Oct-18 14:59N 29°35' W 090°37'0 0.0
2017-Oct-18 13:59N 29°35' W 090°37'0 0.0
2017-Oct-18 13:29N 29°35' W 090°37'0 0.0
2017-Oct-18 12:59N 29°35' W 090°37'0 0.0
2017-Oct-18 12:29N 29°35' W 090°37'0 0.0
2017-Oct-18 11:59N 29°35' W 090°37'0 0.0
2017-Oct-18 11:29N 29°35' W 090°37'0 0.0
2017-Oct-18 10:59N 29°35' W 090°37'0 0.0
2017-Oct-18 10:29N 29°35' W 090°37'0 0.0
2017-Oct-18 09:59N 29°35' W 090°37'0 0.0
2017-Oct-18 09:29N 29°35' W 090°37'0 0.0
2017-Oct-18 08:59N 29°35' W 090°37'0 0.0
2017-Oct-18 08:29N 29°35' W 090°37'0 0.0
2017-Oct-18 07:59N 29°35' W 090°37'0 0.0
2017-Oct-18 07:29N 29°35' W 090°37'0 0.0
2017-Oct-18 06:59N 29°35' W 090°37'0 0.0
2017-Oct-18 06:29N 29°35' W 090°37'0 0.0
2017-Oct-18 05:58N 29°35' W 090°37'0 0.0
2017-Oct-18 05:29N 29°35' W 090°37'0 0.0
2017-Oct-18 04:58N 29°35' W 090°37'0 0.0
2017-Oct-18 04:29N 29°35' W 090°37'0 0.0
2017-Oct-18 03:59N 29°35' W 090°37'0 0.0
2017-Oct-18 03:28N 29°35' W 090°37'0 0.0
2017-Oct-18 02:58N 29°35' W 090°37'0 0.0
2017-Oct-18 02:29N 29°35' W 090°37'0 0.0
2017-Oct-18 01:59N 29°35' W 090°37'0 0.0
2017-Oct-18 01:29N 29°35' W 090°37'0 0.0
2017-Oct-18 00:59N 29°35' W 090°37'0 0.0
2017-Oct-18 00:29N 29°35' W 090°37'0 0.0
2017-Oct-17 23:59N 29°35' W 090°37'0 0.0
2017-Oct-17 23:29N 29°35' W 090°37'0 0.0
2017-Oct-17 22:59N 29°35' W 090°37'0 0.0
2017-Oct-17 22:29N 29°35' W 090°37'0 0.0
2017-Oct-17 21:58N 29°35' W 090°37'0 0.0
2017-Oct-17 21:28N 29°35' W 090°37'0 0.0
2017-Oct-17 20:59N 29°35' W 090°37'0 0.0
2017-Oct-17 20:28N 29°35' W 090°37'0 0.0
2017-Oct-17 19:58N 29°35' W 090°37'0 0.0
2017-Oct-17 19:28N 29°35' W 090°37'0 0.0
2017-Oct-17 18:58N 29°35' W 090°37'0 0.0
2017-Oct-17 18:28N 29°35' W 090°37'0 0.0
2017-Oct-17 17:58N 29°35' W 090°37'0 0.0
2017-Oct-17 17:28N 29°35' W 090°37'0 0.0
2017-Oct-17 16:58N 29°35' W 090°37'0 0.0
2017-Oct-17 16:28N 29°35' W 090°37'0 0.0
2017-Oct-17 15:59N 29°35' W 090°37'0 0.0
2017-Oct-17 15:28N 29°35' W 090°37'0 0.0
2017-Oct-17 14:58N 29°35' W 090°37'0 0.0
2017-Oct-17 14:28N 29°35' W 090°37'0 0.0
2017-Oct-17 13:58N 29°35' W 090°37'0 0.0
2017-Oct-17 13:28N 29°35' W 090°37'0 0.0
2017-Oct-17 12:58N 29°35' W 090°37'0 0.0
2017-Oct-17 12:28N 29°35' W 090°37'0 0.0
2017-Oct-17 11:59N 29°35' W 090°37'0 0.0
2017-Oct-17 11:29N 29°35' W 090°37'0 0.0
2017-Oct-17 10:58N 29°35' W 090°37'0 0.0
2017-Oct-17 10:28N 29°35' W 090°37'0 0.0
2017-Oct-17 09:58N 29°35' W 090°37'0 0.0
2017-Oct-17 09:28N 29°35' W 090°37'0 0.0
2017-Oct-17 08:58N 29°35' W 090°37'0 0.0
2017-Oct-17 08:28N 29°35' W 090°37'0 0.0
2017-Oct-17 07:58N 29°35' W 090°37'0 0.0
2017-Oct-17 07:28N 29°35' W 090°37'0 0.0
2017-Oct-17 06:58N 29°35' W 090°37'0 0.0
2017-Oct-17 06:28N 29°35' W 090°37'0 0.0
2017-Oct-17 05:58N 29°35' W 090°37'0 0.0
2017-Oct-17 05:28N 29°35' W 090°37'0 0.0
2017-Oct-17 04:58N 29°35' W 090°37'0 0.0
2017-Oct-17 04:28N 29°35' W 090°37'0 0.0
2017-Oct-17 03:58N 29°35' W 090°37'0 0.0
2017-Oct-17 03:13N 29°35' W 090°37'0 0.0
2017-Oct-17 02:58N 29°35' W 090°37'0 0.0
2017-Oct-17 02:28N 29°35' W 090°37'0 0.0
2017-Oct-17 01:58N 29°35' W 090°37'0 0.0
2017-Oct-17 01:28N 29°35' W 090°37'0 0.0
2017-Oct-17 00:58N 29°35' W 090°37'0 0.0
2017-Oct-17 00:28N 29°35' W 090°37'0 0.0
2017-Oct-16 23:58N 29°35' W 090°37'0 0.0
2017-Oct-16 23:28N 29°35' W 090°37'0 0.0
2017-Oct-16 22:58N 29°35' W 090°37'0 0.0
2017-Oct-16 22:28N 29°35' W 090°37'0 0.0
2017-Oct-16 21:58N 29°35' W 090°37'0 0.0
2017-Oct-16 21:28N 29°35' W 090°37'0 0.0
2017-Oct-16 20:58N 29°35' W 090°37'0 0.0
2017-Oct-16 20:28N 29°35' W 090°37'0 0.0
2017-Oct-16 19:58N 29°35' W 090°37'0 0.0
2017-Oct-16 19:28N 29°35' W 090°37'0 0.0
2017-Oct-16 18:58N 29°35' W 090°37'0 0.0
2017-Oct-16 18:28N 29°35' W 090°37'0 0.0
2017-Oct-16 17:58N 29°35' W 090°37'0 0.0
2017-Oct-16 17:28N 29°35' W 090°37'0 0.0
2017-Oct-16 16:58N 29°35' W 090°37'0 0.0
2017-Oct-16 16:28N 29°35' W 090°37'0 0.0
2017-Oct-16 15:58N 29°35' W 090°37'0 0.0
2017-Oct-16 15:28N 29°35' W 090°37'0 0.0
2017-Oct-16 14:58N 29°35' W 090°37'0 0.0
2017-Oct-16 13:58N 29°35' W 090°37'0 0.0
2017-Oct-16 13:28N 29°35' W 090°37'0 0.0
2017-Oct-16 12:58N 29°35' W 090°37'0 0.0
2017-Oct-16 12:28N 29°35' W 090°37'0 0.0
2017-Oct-16 11:58N 29°35' W 090°37'0 0.0
2017-Oct-16 11:28N 29°35' W 090°37'0 0.0
2017-Oct-16 10:58N 29°35' W 090°37'0 0.0
2017-Oct-16 10:28N 29°35' W 090°37'0 0.0
2017-Oct-16 09:58N 29°35' W 090°37'0 0.0
2017-Oct-16 09:28N 29°35' W 090°37'0 0.0
2017-Oct-16 08:58N 29°35' W 090°37'0 0.0
2017-Oct-16 08:28N 29°35' W 090°37'0 0.0
2017-Oct-16 07:58N 29°35' W 090°37'0 0.0
2017-Oct-16 07:28N 29°35' W 090°37'0 0.0
2017-Oct-16 06:58N 29°35' W 090°37'0 0.0
2017-Oct-16 06:28N 29°35' W 090°37'0 0.0
2017-Oct-16 05:58N 29°35' W 090°37'0 0.0
2017-Oct-16 05:28N 29°35' W 090°37'0 0.0
2017-Oct-16 04:58N 29°35' W 090°37'0 0.0
2017-Oct-16 04:28N 29°35' W 090°37'0 0.0
2017-Oct-16 03:58N 29°35' W 090°37'0 0.0
2017-Oct-16 03:28N 29°35' W 090°37'0 0.0
2017-Oct-16 02:58N 29°35' W 090°37'0 0.0
2017-Oct-16 02:28N 29°35' W 090°37'0 0.0
2017-Oct-16 01:58N 29°35' W 090°37'0 0.0
2017-Oct-16 01:28N 29°35' W 090°37'0 0.0
2017-Oct-16 00:58N 29°35' W 090°37'0 0.0
2017-Oct-16 00:28N 29°35' W 090°37'0 0.0
2017-Oct-15 23:58N 29°35' W 090°37'0 0.0
2017-Oct-15 23:28N 29°35' W 090°37'0 0.0
2017-Oct-15 22:58N 29°35' W 090°37'0 0.0
2017-Oct-15 22:28N 29°35' W 090°37'0 0.0
2017-Oct-15 21:58N 29°35' W 090°37'0 0.0
2017-Oct-15 21:28N 29°35' W 090°37'0 0.0
2017-Oct-15 20:58N 29°35' W 090°37'0 0.0
2017-Oct-15 20:28N 29°35' W 090°37'0 0.0
2017-Oct-15 19:58N 29°35' W 090°37'0 0.0
2017-Oct-15 19:28N 29°35' W 090°37'0 0.0
2017-Oct-15 18:58N 29°35' W 090°37'0 0.0
2017-Oct-15 18:28N 29°35' W 090°37'0 0.0
2017-Oct-15 17:58N 29°35' W 090°37'0 0.0
2017-Oct-15 17:28N 29°35' W 090°37'0 0.0
2017-Oct-15 16:58N 29°35' W 090°37'0 0.0
2017-Oct-15 16:28N 29°35' W 090°37'0 0.0
2017-Oct-15 15:58N 29°35' W 090°37'0 0.0
2017-Oct-15 15:28N 29°35' W 090°37'0 0.0
2017-Oct-15 14:58N 29°35' W 090°37'0 0.0
2017-Oct-15 13:58N 29°35' W 090°37'0 0.0
2017-Oct-15 13:28N 29°35' W 090°37'0 0.0
2017-Oct-15 12:58N 29°35' W 090°37'0 0.0
2017-Oct-15 12:28N 29°35' W 090°37'0 0.0
2017-Oct-15 11:58N 29°35' W 090°37'0 0.0
2017-Oct-15 11:28N 29°35' W 090°37'0 0.0
2017-Oct-15 10:55N 29°35' W 090°37'0 0.0
2017-Oct-15 10:28N 29°35' W 090°37'0 0.0
2017-Oct-15 09:58N 29°35' W 090°37'0 0.0
2017-Oct-15 09:28N 29°35' W 090°37'0 0.0
2017-Oct-15 08:58N 29°35' W 090°37'0 0.0
2017-Oct-15 08:28N 29°35' W 090°37'0 0.0
2017-Oct-15 07:58N 29°35' W 090°37'0 0.0
2017-Oct-15 07:28N 29°35' W 090°37'0 0.0
2017-Oct-15 06:58N 29°35' W 090°37'0 0.0
2017-Oct-15 06:28N 29°35' W 090°37'0 0.0
2017-Oct-15 05:58N 29°35' W 090°37'0 0.0
2017-Oct-15 05:28N 29°35' W 090°37'0 0.0
2017-Oct-15 04:58N 29°35' W 090°37'0 0.0
2017-Oct-15 04:28N 29°35' W 090°37'0 0.0
2017-Oct-15 03:58N 29°35' W 090°37'0 0.0
2017-Oct-15 03:28N 29°35' W 090°37'0 0.0
2017-Oct-15 02:58N 29°35' W 090°37'0 0.0
2017-Oct-15 02:28N 29°35' W 090°37'0 0.0
2017-Oct-15 01:58N 29°35' W 090°37'0 0.0
2017-Oct-15 01:28N 29°35' W 090°37'0 0.0
2017-Oct-15 00:58N 29°35' W 090°37'0 0.0
2017-Oct-15 00:28N 29°35' W 090°37'0 0.0
2017-Oct-14 23:58N 29°35' W 090°37'0 0.0
2017-Oct-14 23:28N 29°35' W 090°37'0 0.0
2017-Oct-14 22:58N 29°35' W 090°37'0 0.0
2017-Oct-14 22:29N 29°35' W 090°37'0 0.0
2017-Oct-14 21:58N 29°35' W 090°37'0 0.0
2017-Oct-14 21:28N 29°35' W 090°37'0 0.0
2017-Oct-14 20:58N 29°35' W 090°37'0 0.0
2017-Oct-14 20:28N 29°35' W 090°37'0 0.0
2017-Oct-14 19:58N 29°35' W 090°37'0 0.0
2017-Oct-14 19:28N 29°35' W 090°37'0 0.0
2017-Oct-14 18:58N 29°35' W 090°37'0 0.0
2017-Oct-14 18:28N 29°35' W 090°37'0 0.0
2017-Oct-14 17:58N 29°35' W 090°37'0 0.0
2017-Oct-14 17:28N 29°35' W 090°37'0 0.0
2017-Oct-14 16:58N 29°35' W 090°37'0 0.0
2017-Oct-14 16:28N 29°35' W 090°37'0 0.0
2017-Oct-14 15:58N 29°35' W 090°37'0 0.0
2017-Oct-14 15:28N 29°35' W 090°37'0 0.0
2017-Oct-14 14:58N 29°35' W 090°37'0 0.0
2017-Oct-14 14:28N 29°35' W 090°37'0 0.0
2017-Oct-14 13:58N 29°35' W 090°37'0 0.0
2017-Oct-14 13:28N 29°35' W 090°37'0 0.0
2017-Oct-14 12:58N 29°35' W 090°37'0 0.0
2017-Oct-14 12:28N 29°35' W 090°37'0 0.0
2017-Oct-14 11:58N 29°35' W 090°37'0 0.0
2017-Oct-14 11:28N 29°35' W 090°37'0 0.0
2017-Oct-14 10:58N 29°35' W 090°37'0 0.0
2017-Oct-14 10:28N 29°35' W 090°37'0 0.0
2017-Oct-14 09:58N 29°35' W 090°37'0 0.0
2017-Oct-14 09:28N 29°35' W 090°37'0 0.0
2017-Oct-14 08:58N 29°35' W 090°37'0 0.0
2017-Oct-14 08:28N 29°35' W 090°37'0 0.0
2017-Oct-14 07:58N 29°35' W 090°37'0 0.0
2017-Oct-14 07:28N 29°35' W 090°37'0 0.0
2017-Oct-14 06:58N 29°35' W 090°37'0 0.0
2017-Oct-14 06:28N 29°35' W 090°37'0 0.0
2017-Oct-14 05:58N 29°35' W 090°37'0 0.0
2017-Oct-14 05:28N 29°35' W 090°37'0 0.0
2017-Oct-14 04:58N 29°35' W 090°37'0 0.0
2017-Oct-14 04:28N 29°35' W 090°37'0 0.0
2017-Oct-14 03:58N 29°35' W 090°37'0 0.0
2017-Oct-14 03:28N 29°35' W 090°37'0 0.0
2017-Oct-14 02:58N 29°35' W 090°37'0 0.0
2017-Oct-14 02:28N 29°35' W 090°37'0 0.0
2017-Oct-14 01:58N 29°35' W 090°37'0 0.0
2017-Oct-14 01:28N 29°35' W 090°37'0 0.0
2017-Oct-14 00:58N 29°35' W 090°37'0 0.0
2017-Oct-14 00:28N 29°35' W 090°37'0 0.0
2017-Oct-13 23:58N 29°35' W 090°37'0 0.0
2017-Oct-13 23:28N 29°35' W 090°37'0 0.0
2017-Oct-13 22:58N 29°35' W 090°37'0 0.0
2017-Oct-13 22:28N 29°35' W 090°37'0 0.0
2017-Oct-13 21:58N 29°35' W 090°37'0 0.0
2017-Oct-13 21:28N 29°35' W 090°37'0 0.0
2017-Oct-13 20:58N 29°35' W 090°37'0 0.0
2017-Oct-13 20:28N 29°35' W 090°37'0 0.0
2017-Oct-13 19:58N 29°35' W 090°37'0 0.0
2017-Oct-13 19:28N 29°35' W 090°37'0 0.0
2017-Oct-13 18:58N 29°35' W 090°37'0 0.0
2017-Oct-13 18:28N 29°35' W 090°37'0 0.0
2017-Oct-13 17:58N 29°35' W 090°37'0 0.0
2017-Oct-13 17:28N 29°35' W 090°37'0 0.0
2017-Oct-13 16:58N 29°35' W 090°37'0 0.0
2017-Oct-13 16:28N 29°35' W 090°37'0 0.0
2017-Oct-13 15:58N 29°35' W 090°37'0 0.0
2017-Oct-13 15:28N 29°35' W 090°37'0 0.0
2017-Oct-13 14:58N 29°35' W 090°37'0 0.0
2017-Oct-13 14:28N 29°35' W 090°37'0 0.0
2017-Oct-13 13:58N 29°35' W 090°37'0 0.0
2017-Oct-13 13:28N 29°35' W 090°37'0 0.0
2017-Oct-13 12:58N 29°35' W 090°37'0 0.0
2017-Oct-13 12:28N 29°35' W 090°37'0 0.0
2017-Oct-13 11:58N 29°35' W 090°37'0 0.0
2017-Oct-13 11:28N 29°35' W 090°37'0 0.0
2017-Oct-13 10:58N 29°35' W 090°37'0 0.0
2017-Oct-13 10:28N 29°35' W 090°37'0 0.0
2017-Oct-13 09:58N 29°35' W 090°37'0 0.0
2017-Oct-13 09:28N 29°35' W 090°37'0 0.0
2017-Oct-13 08:58N 29°35' W 090°37'0 0.0
2017-Oct-13 08:28N 29°35' W 090°37'0 0.0
2017-Oct-13 07:58N 29°35' W 090°37'0 0.0
2017-Oct-13 07:28N 29°35' W 090°37'0 0.0
2017-Oct-13 06:58N 29°35' W 090°37'0 0.0
2017-Oct-13 06:28N 29°35' W 090°37'0 0.0
2017-Oct-13 05:58N 29°35' W 090°37'0 0.0
2017-Oct-13 05:28N 29°35' W 090°37'0 0.0
2017-Oct-13 04:58N 29°35' W 090°37'0 0.0
2017-Oct-13 04:28N 29°35' W 090°37'0 0.0
2017-Oct-13 03:58N 29°35' W 090°37'0 0.0
2017-Oct-13 03:28N 29°35' W 090°37'0 0.0
2017-Oct-13 02:58N 29°35' W 090°37'0 0.0
2017-Oct-13 02:28N 29°35' W 090°37'0 0.0
2017-Oct-13 01:58N 29°35' W 090°37'0 0.0
2017-Oct-13 01:28N 29°35' W 090°37'0 0.0
2017-Oct-13 00:58N 29°35' W 090°37'0 0.0
2017-Oct-13 00:28N 29°35' W 090°37'0 0.0
2017-Oct-12 23:58N 29°35' W 090°37'0 0.0
2017-Oct-12 23:28N 29°35' W 090°37'0 0.0
2017-Oct-12 22:55N 29°35' W 090°37'0 0.0
2017-Oct-12 22:28N 29°35' W 090°37'0 0.0
2017-Oct-12 21:58N 29°35' W 090°37'0 0.0
2017-Oct-12 21:28N 29°35' W 090°37'0 0.0
2017-Oct-12 20:58N 29°35' W 090°37'0 0.0
2017-Oct-12 20:28N 29°35' W 090°37'0 0.0
2017-Oct-12 19:58N 29°35' W 090°37'0 0.0
2017-Oct-12 19:28N 29°35' W 090°37'0 0.0
2017-Oct-12 18:58N 29°35' W 090°37'0 0.0
2017-Oct-12 18:28N 29°35' W 090°37'0 0.0
2017-Oct-12 17:58N 29°35' W 090°37'0 0.0
2017-Oct-12 17:28N 29°35' W 090°37'0 0.0
2017-Oct-12 16:58N 29°35' W 090°37'0 0.0
2017-Oct-12 16:28N 29°35' W 090°37'0 0.0
2017-Oct-12 15:58N 29°35' W 090°37'0 0.0
2017-Oct-12 15:28N 29°35' W 090°37'0 0.0
2017-Oct-12 14:58N 29°35' W 090°37'0 0.0
2017-Oct-12 14:28N 29°35' W 090°37'0 0.0
2017-Oct-12 13:58N 29°35' W 090°37'0 0.0
2017-Oct-12 13:28N 29°35' W 090°37'0 0.0
2017-Oct-12 12:55N 29°35' W 090°37'0 0.0
2017-Oct-12 12:28N 29°35' W 090°37'0 0.0
2017-Oct-12 11:55N 29°35' W 090°37'0 0.0
2017-Oct-12 11:28N 29°35' W 090°37'0 0.0
2017-Oct-12 10:58N 29°35' W 090°37'0 0.0
2017-Oct-12 10:28N 29°35' W 090°37'0 0.0
2017-Oct-12 09:58N 29°35' W 090°37'0 0.0
2017-Oct-12 09:28N 29°35' W 090°37'0 0.0
2017-Oct-12 08:58N 29°35' W 090°37'0 0.0
2017-Oct-12 08:28N 29°35' W 090°37'0 0.0
2017-Oct-12 07:58N 29°35' W 090°37'0 0.0
2017-Oct-12 07:28N 29°35' W 090°37'0 0.0
2017-Oct-12 06:58N 29°35' W 090°37'0 0.0
2017-Oct-12 06:28N 29°35' W 090°37'0 0.0
2017-Oct-12 05:58N 29°35' W 090°37'0 0.0
2017-Oct-12 05:28N 29°35' W 090°37'0 0.0
2017-Oct-12 04:58N 29°35' W 090°37'0 0.0
2017-Oct-12 04:25N 29°35' W 090°37'0 0.0
2017-Oct-12 03:58N 29°35' W 090°37'0 0.0
2017-Oct-12 03:28N 29°35' W 090°37'0 0.0
2017-Oct-12 02:58N 29°35' W 090°37'0 0.0
2017-Oct-12 02:28N 29°35' W 090°37'0 0.0
2017-Oct-12 01:58N 29°35' W 090°37'0 0.0
2017-Oct-12 01:28N 29°35' W 090°37'0 0.0
2017-Oct-12 00:58N 29°35' W 090°37'0 0.0
2017-Oct-12 00:28N 29°35' W 090°37'0 0.0
2017-Oct-11 23:58N 29°35' W 090°37'0 0.0
2017-Oct-11 23:28N 29°35' W 090°37'0 0.0
2017-Oct-11 22:58N 29°35' W 090°37'0 0.0
2017-Oct-11 22:28N 29°35' W 090°37'0 0.0
2017-Oct-11 21:58N 29°35' W 090°37'0 0.0
2017-Oct-11 21:28N 29°35' W 090°37'0 0.0
2017-Oct-11 20:58N 29°35' W 090°37'0 0.0
2017-Oct-11 20:28N 29°35' W 090°37'0 0.0
2017-Oct-11 19:58N 29°35' W 090°37'0 0.0
2017-Oct-11 19:28N 29°35' W 090°37'0 0.0
2017-Oct-11 18:58N 29°35' W 090°37'0 0.0
2017-Oct-11 18:28N 29°35' W 090°37'0 0.0
2017-Oct-11 17:58N 29°35' W 090°37'0 0.0
2017-Oct-11 17:28N 29°35' W 090°37'0 0.0
2017-Oct-11 16:58N 29°35' W 090°37'0 0.0
2017-Oct-10 23:58N 29°35' W 090°37'0 0.0
2017-Oct-10 23:28N 29°35' W 090°37'0 0.0
2017-Oct-10 22:58N 29°35' W 090°37'0 0.0
2017-Oct-10 22:28N 29°35' W 090°37'0 0.0
2017-Oct-10 21:58N 29°35' W 090°37'0 0.0
2017-Oct-10 21:28N 29°35' W 090°37'0 0.0
2017-Oct-10 20:58N 29°35' W 090°37'0 0.1
2017-Oct-10 20:30N 29°35' W 090°37'0 0.1
2017-Oct-10 20:00N 29°35' W 090°37'3 6.5
2017-Oct-10 19:30N 29°36' W 090°40'2 4.1
2017-Oct-10 18:59N 29°37' W 090°42'0 0.0
2017-Oct-10 18:29N 29°37' W 090°42'0 0.0
2017-Oct-10 17:59N 29°37' W 090°42'0 0.0
2017-Oct-10 17:29N 29°37' W 090°42'0 0.0
2017-Oct-10 16:59N 29°37' W 090°42'0 0.0
2017-Oct-10 16:29N 29°37' W 090°42'0 0.8
2017-Oct-10 16:00N 29°37' W 090°43'0 0.0
2017-Oct-10 15:30N 29°37' W 090°43'0 0.0
2017-Oct-10 15:00N 29°37' W 090°43'0 0.0
2017-Oct-10 14:00N 29°37' W 090°43'0 0.0
2017-Oct-10 13:30N 29°37' W 090°43'0 0.0
2017-Oct-10 13:00N 29°37' W 090°43'0 0.0
2017-Oct-10 12:30N 29°37' W 090°43'0 0.0
2017-Oct-10 12:00N 29°37' W 090°43'0 0.0
2017-Oct-10 11:30N 29°37' W 090°43'0 0.0
2017-Oct-10 11:00N 29°37' W 090°43'0 0.0
2017-Oct-10 10:30N 29°37' W 090°43'0 0.0
2017-Oct-10 10:00N 29°37' W 090°43'0 0.4
2017-Oct-10 09:31N 29°37' W 090°42'0 0.5
2017-Oct-10 09:00N 29°37' W 090°43'3 5.4
2017-Oct-10 08:30N 29°34' W 090°43'3 6.1
2017-Oct-10 08:00N 29°32' W 090°46'4 7.4
2017-Oct-10 07:30N 29°32' W 090°51'  
Track history (hours):
 
Tides and Currents Weather Stations Pressure Air Temp Water Temp Dewpoint Dewpoint Depression Visibility Wind Speed Wind Dir Waves Ship Positions

Tutty Cenac

Owner: Cenac Marine Services, Houma, LA. More information available from US FCC via Universal Licensing System and Coast Guard Vessel Documentation Center.

Last reported at 2017-Oct-19 22:00 UTC. Time now 2017-Oct-19 22:04 UTC.
Position N 29°34' W 090°43'.

Length 22 m; draft 3 m.

Type: Tug. MMSI: 367637490.

Date/timePositionNaut miles runAvg speedWind from/ knotsBaromVisibWave heightAir tempDewpointWater temp
2017-Oct-19 22:00N 29°34' W 090°43'0 0.0
2017-Oct-19 21:30N 29°34' W 090°43'0 0.0
2017-Oct-19 21:00N 29°34' W 090°43'2 4.5
2017-Oct-19 20:30N 29°36' W 090°43'2 4.5
2017-Oct-19 20:00N 29°36' W 090°40'3 2.7
2017-Oct-19 18:49N 29°35' W 090°37'0 0.0
2017-Oct-19 14:49N 29°35' W 090°37'1 4.2
2017-Oct-19 14:30N 29°35' W 090°38'3 6.5
2017-Oct-19 14:00N 29°37' W 090°41'1 1.8
2017-Oct-19 13:28N 29°37' W 090°43'0 0.0
2017-Oct-19 12:58N 29°37' W 090°43'0 0.0
2017-Oct-19 12:28N 29°37' W 090°43'0 0.0
2017-Oct-19 11:58N 29°37' W 090°43'0 0.0
2017-Oct-19 11:28N 29°37' W 090°43'0 0.0
2017-Oct-19 10:58N 29°37' W 090°43'0 0.0
2017-Oct-19 10:28N 29°37' W 090°43'0 0.0
2017-Oct-19 09:58N 29°37' W 090°43'0 0.0
2017-Oct-19 09:28N 29°37' W 090°43'0 0.0
2017-Oct-19 08:58N 29°37' W 090°43'0 0.0
2017-Oct-19 08:28N 29°37' W 090°43'0 0.0
2017-Oct-19 07:58N 29°37' W 090°43'0 0.0
2017-Oct-19 07:28N 29°37' W 090°43'0 0.0
2017-Oct-19 06:58N 29°37' W 090°43'0 0.0
2017-Oct-19 06:28N 29°37' W 090°43'0 0.0
2017-Oct-19 05:58N 29°37' W 090°43'0 0.0
2017-Oct-19 05:28N 29°37' W 090°43'0 0.0
2017-Oct-19 04:58N 29°37' W 090°43'0 0.0
2017-Oct-19 04:28N 29°37' W 090°43'0 0.0
2017-Oct-19 03:58N 29°37' W 090°43'0 0.0
2017-Oct-19 03:28N 29°37' W 090°43'0 0.0
2017-Oct-19 02:58N 29°37' W 090°43'0 0.0
2017-Oct-19 02:28N 29°37' W 090°43'0 0.0
2017-Oct-19 01:58N 29°37' W 090°43'0 0.0
2017-Oct-19 01:28N 29°37' W 090°43'1 1.8
2017-Oct-19 01:00N 29°37' W 090°42'3 6.5
2017-Oct-19 00:30N 29°35' W 090°38'2 3.0
2017-Oct-19 00:00N 29°35' W 090°37'0 0.0
2017-Oct-18 23:30N 29°35' W 090°37'0 0.1
2017-Oct-18 22:51N 29°35' W 090°37'0 0.1
2017-Oct-18 22:29N 29°35' W 090°37'0 0.0
2017-Oct-18 21:59N 29°35' W 090°37'0 0.0
2017-Oct-18 21:29N 29°35' W 090°37'0 0.0
2017-Oct-18 20:59N 29°35' W 090°37'0 0.0
2017-Oct-18 20:29N 29°35' W 090°37'0 0.0
2017-Oct-18 19:59N 29°35' W 090°37'0 0.0
2017-Oct-18 19:29N 29°35' W 090°37'0 0.0
2017-Oct-18 18:59N 29°35' W 090°37'0 0.0
2017-Oct-18 18:29N 29°35' W 090°37'0 0.0
2017-Oct-18 17:59N 29°35' W 090°37'0 0.0
2017-Oct-18 17:29N 29°35' W 090°37'0 0.0
2017-Oct-18 16:59N 29°35' W 090°37'0 0.0
2017-Oct-18 16:29N 29°35' W 090°37'0 0.0
2017-Oct-18 15:59N 29°35' W 090°37'0 0.0
2017-Oct-18 15:29N 29°35' W 090°37'0 0.0
2017-Oct-18 14:59N 29°35' W 090°37'0 0.0
2017-Oct-18 13:59N 29°35' W 090°37'0 0.0
2017-Oct-18 13:29N 29°35' W 090°37'0 0.0
2017-Oct-18 12:59N 29°35' W 090°37'0 0.0
2017-Oct-18 12:29N 29°35' W 090°37'0 0.0
2017-Oct-18 11:59N 29°35' W 090°37'0 0.0
2017-Oct-18 11:29N 29°35' W 090°37'0 0.0
2017-Oct-18 10:59N 29°35' W 090°37'0 0.0
2017-Oct-18 10:29N 29°35' W 090°37'0 0.0
2017-Oct-18 09:59N 29°35' W 090°37'0 0.0
2017-Oct-18 09:29N 29°35' W 090°37'0 0.0
2017-Oct-18 08:59N 29°35' W 090°37'0 0.0
2017-Oct-18 08:29N 29°35' W 090°37'0 0.0
2017-Oct-18 07:59N 29°35' W 090°37'0 0.0
2017-Oct-18 07:29N 29°35' W 090°37'0 0.0
2017-Oct-18 06:59N 29°35' W 090°37'0 0.0
2017-Oct-18 06:29N 29°35' W 090°37'0 0.0
2017-Oct-18 05:58N 29°35' W 090°37'0 0.0
2017-Oct-18 05:29N 29°35' W 090°37'0 0.0
2017-Oct-18 04:58N 29°35' W 090°37'0 0.0
2017-Oct-18 04:29N 29°35' W 090°37'0 0.0
2017-Oct-18 03:59N 29°35' W 090°37'0 0.0
2017-Oct-18 03:28N 29°35' W 090°37'0 0.0
2017-Oct-18 02:58N 29°35' W 090°37'0 0.0
2017-Oct-18 02:29N 29°35' W 090°37'0 0.0
2017-Oct-18 01:59N 29°35' W 090°37'0 0.0
2017-Oct-18 01:29N 29°35' W 090°37'0 0.0
2017-Oct-18 00:59N 29°35' W 090°37'0 0.0
2017-Oct-18 00:29N 29°35' W 090°37'0 0.0
2017-Oct-17 23:59N 29°35' W 090°37'0 0.0
2017-Oct-17 23:29N 29°35' W 090°37'0 0.0
2017-Oct-17 22:59N 29°35' W 090°37'0 0.0
2017-Oct-17 22:29N 29°35' W 090°37'0 0.0
2017-Oct-17 21:58N 29°35' W 090°37'0 0.0
2017-Oct-17 21:28N 29°35' W 090°37'0 0.0
2017-Oct-17 20:59N 29°35' W 090°37'0 0.0
2017-Oct-17 20:28N 29°35' W 090°37'0 0.0
2017-Oct-17 19:58N 29°35' W 090°37'0 0.0
2017-Oct-17 19:28N 29°35' W 090°37'0 0.0
2017-Oct-17 18:58N 29°35' W 090°37'0 0.0
2017-Oct-17 18:28N 29°35' W 090°37'0 0.0
2017-Oct-17 17:58N 29°35' W 090°37'0 0.0
2017-Oct-17 17:28N 29°35' W 090°37'0 0.0
2017-Oct-17 16:58N 29°35' W 090°37'0 0.0
2017-Oct-17 16:28N 29°35' W 090°37'0 0.0
2017-Oct-17 15:59N 29°35' W 090°37'0 0.0
2017-Oct-17 15:28N 29°35' W 090°37'0 0.0
2017-Oct-17 14:58N 29°35' W 090°37'0 0.0
2017-Oct-17 14:28N 29°35' W 090°37'0 0.0
2017-Oct-17 13:58N 29°35' W 090°37'0 0.0
2017-Oct-17 13:28N 29°35' W 090°37'0 0.0
2017-Oct-17 12:58N 29°35' W 090°37'0 0.0
2017-Oct-17 12:28N 29°35' W 090°37'0 0.0
2017-Oct-17 11:59N 29°35' W 090°37'0 0.0
2017-Oct-17 11:29N 29°35' W 090°37'0 0.0
2017-Oct-17 10:58N 29°35' W 090°37'0 0.0
2017-Oct-17 10:28N 29°35' W 090°37'0 0.0
2017-Oct-17 09:58N 29°35' W 090°37'0 0.0
2017-Oct-17 09:28N 29°35' W 090°37'0 0.0
2017-Oct-17 08:58N 29°35' W 090°37'0 0.0
2017-Oct-17 08:28N 29°35' W 090°37'0 0.0
2017-Oct-17 07:58N 29°35' W 090°37'0 0.0
2017-Oct-17 07:28N 29°35' W 090°37'0 0.0
2017-Oct-17 06:58N 29°35' W 090°37'0 0.0
2017-Oct-17 06:28N 29°35' W 090°37'0 0.0
2017-Oct-17 05:58N 29°35' W 090°37'0 0.0
2017-Oct-17 05:28N 29°35' W 090°37'0 0.0
2017-Oct-17 04:58N 29°35' W 090°37'0 0.0
2017-Oct-17 04:28N 29°35' W 090°37'0 0.0
2017-Oct-17 03:58N 29°35' W 090°37'0 0.0
2017-Oct-17 03:13N 29°35' W 090°37'0 0.0
2017-Oct-17 02:58N 29°35' W 090°37'0 0.0
2017-Oct-17 02:28N 29°35' W 090°37'0 0.0
2017-Oct-17 01:58N 29°35' W 090°37'0 0.0
2017-Oct-17 01:28N 29°35' W 090°37'0 0.0
2017-Oct-17 00:58N 29°35' W 090°37'0 0.0
2017-Oct-17 00:28N 29°35' W 090°37'0 0.0
2017-Oct-16 23:58N 29°35' W 090°37'0 0.0
2017-Oct-16 23:28N 29°35' W 090°37'0 0.0
2017-Oct-16 22:58N 29°35' W 090°37'0 0.0
2017-Oct-16 22:28N 29°35' W 090°37'0 0.0
2017-Oct-16 21:58N 29°35' W 090°37'0 0.0
2017-Oct-16 21:28N 29°35' W 090°37'0 0.0
2017-Oct-16 20:58N 29°35' W 090°37'0 0.0
2017-Oct-16 20:28N 29°35' W 090°37'0 0.0
2017-Oct-16 19:58N 29°35' W 090°37'0 0.0
2017-Oct-16 19:28N 29°35' W 090°37'0 0.0
2017-Oct-16 18:58N 29°35' W 090°37'0 0.0
2017-Oct-16 18:28N 29°35' W 090°37'0 0.0
2017-Oct-16 17:58N 29°35' W 090°37'0 0.0
2017-Oct-16 17:28N 29°35' W 090°37'0 0.0
2017-Oct-16 16:58N 29°35' W 090°37'0 0.0
2017-Oct-16 16:28N 29°35' W 090°37'0 0.0
2017-Oct-16 15:58N 29°35' W 090°37'0 0.0
2017-Oct-16 15:28N 29°35' W 090°37'0 0.0
2017-Oct-16 14:58N 29°35' W 090°37'0 0.0
2017-Oct-16 13:58N 29°35' W 090°37'0 0.0
2017-Oct-16 13:28N 29°35' W 090°37'0 0.0
2017-Oct-16 12:58N 29°35' W 090°37'0 0.0
2017-Oct-16 12:28N 29°35' W 090°37'0 0.0
2017-Oct-16 11:58N 29°35' W 090°37'0 0.0
2017-Oct-16 11:28N 29°35' W 090°37'0 0.0
2017-Oct-16 10:58N 29°35' W 090°37'0 0.0
2017-Oct-16 10:28N 29°35' W 090°37'0 0.0
2017-Oct-16 09:58N 29°35' W 090°37'0 0.0
2017-Oct-16 09:28N 29°35' W 090°37'0 0.0
2017-Oct-16 08:58N 29°35' W 090°37'0 0.0
2017-Oct-16 08:28N 29°35' W 090°37'0 0.0
2017-Oct-16 07:58N 29°35' W 090°37'0 0.0
2017-Oct-16 07:28N 29°35' W 090°37'0 0.0
2017-Oct-16 06:58N 29°35' W 090°37'0 0.0
2017-Oct-16 06:28N 29°35' W 090°37'0 0.0
2017-Oct-16 05:58N 29°35' W 090°37'0 0.0
2017-Oct-16 05:28N 29°35' W 090°37'0 0.0
2017-Oct-16 04:58N 29°35' W 090°37'0 0.0
2017-Oct-16 04:28N 29°35' W 090°37'0 0.0
2017-Oct-16 03:58N 29°35' W 090°37'0 0.0
2017-Oct-16 03:28N 29°35' W 090°37'0 0.0
2017-Oct-16 02:58N 29°35' W 090°37'0 0.0
2017-Oct-16 02:28N 29°35' W 090°37'0 0.0
2017-Oct-16 01:58N 29°35' W 090°37'0 0.0
2017-Oct-16 01:28N 29°35' W 090°37'0 0.0
2017-Oct-16 00:58N 29°35' W 090°37'0 0.0
2017-Oct-16 00:28N 29°35' W 090°37'0 0.0
2017-Oct-15 23:58N 29°35' W 090°37'0 0.0
2017-Oct-15 23:28N 29°35' W 090°37'0 0.0
2017-Oct-15 22:58N 29°35' W 090°37'0 0.0
2017-Oct-15 22:28N 29°35' W 090°37'0 0.0
2017-Oct-15 21:58N 29°35' W 090°37'0 0.0
2017-Oct-15 21:28N 29°35' W 090°37'0 0.0
2017-Oct-15 20:58N 29°35' W 090°37'0 0.0
2017-Oct-15 20:28N 29°35' W 090°37'0 0.0
2017-Oct-15 19:58N 29°35' W 090°37'0 0.0
2017-Oct-15 19:28N 29°35' W 090°37'0 0.0
2017-Oct-15 18:58N 29°35' W 090°37'0 0.0
2017-Oct-15 18:28N 29°35' W 090°37'0 0.0
2017-Oct-15 17:58N 29°35' W 090°37'0 0.0
2017-Oct-15 17:28N 29°35' W 090°37'0 0.0
2017-Oct-15 16:58N 29°35' W 090°37'0 0.0
2017-Oct-15 16:28N 29°35' W 090°37'0 0.0
2017-Oct-15 15:58N 29°35' W 090°37'0 0.0
2017-Oct-15 15:28N 29°35' W 090°37'0 0.0
2017-Oct-15 14:58N 29°35' W 090°37'0 0.0
2017-Oct-15 13:58N 29°35' W 090°37'0 0.0
2017-Oct-15 13:28N 29°35' W 090°37'0 0.0
2017-Oct-15 12:58N 29°35' W 090°37'0 0.0
2017-Oct-15 12:28N 29°35' W 090°37'0 0.0
2017-Oct-15 11:58N 29°35' W 090°37'0 0.0
2017-Oct-15 11:28N 29°35' W 090°37'0 0.0
2017-Oct-15 10:55N 29°35' W 090°37'0 0.0
2017-Oct-15 10:28N 29°35' W 090°37'0 0.0
2017-Oct-15 09:58N 29°35' W 090°37'0 0.0
2017-Oct-15 09:28N 29°35' W 090°37'0 0.0
2017-Oct-15 08:58N 29°35' W 090°37'0 0.0
2017-Oct-15 08:28N 29°35' W 090°37'0 0.0
2017-Oct-15 07:58N 29°35' W 090°37'0 0.0
2017-Oct-15 07:28N 29°35' W 090°37'0 0.0
2017-Oct-15 06:58N 29°35' W 090°37'0 0.0
2017-Oct-15 06:28N 29°35' W 090°37'0 0.0
2017-Oct-15 05:58N 29°35' W 090°37'0 0.0
2017-Oct-15 05:28N 29°35' W 090°37'0 0.0
2017-Oct-15 04:58N 29°35' W 090°37'0 0.0
2017-Oct-15 04:28N 29°35' W 090°37'0 0.0
2017-Oct-15 03:58N 29°35' W 090°37'0 0.0
2017-Oct-15 03:28N 29°35' W 090°37'0 0.0
2017-Oct-15 02:58N 29°35' W 090°37'0 0.0
2017-Oct-15 02:28N 29°35' W 090°37'0 0.0
2017-Oct-15 01:58N 29°35' W 090°37'0 0.0
2017-Oct-15 01:28N 29°35' W 090°37'0 0.0
2017-Oct-15 00:58N 29°35' W 090°37'0 0.0
2017-Oct-15 00:28N 29°35' W 090°37'0 0.0
2017-Oct-14 23:58N 29°35' W 090°37'0 0.0
2017-Oct-14 23:28N 29°35' W 090°37'0 0.0
2017-Oct-14 22:58N 29°35' W 090°37'0 0.0
2017-Oct-14 22:29N 29°35' W 090°37'0 0.0
2017-Oct-14 21:58N 29°35' W 090°37'0 0.0
2017-Oct-14 21:28N 29°35' W 090°37'0 0.0
2017-Oct-14 20:58N 29°35' W 090°37'0 0.0
2017-Oct-14 20:28N 29°35' W 090°37'0 0.0
2017-Oct-14 19:58N 29°35' W 090°37'0 0.0
2017-Oct-14 19:28N 29°35' W 090°37'0 0.0
2017-Oct-14 18:58N 29°35' W 090°37'0 0.0
2017-Oct-14 18:28N 29°35' W 090°37'0 0.0
2017-Oct-14 17:58N 29°35' W 090°37'0 0.0
2017-Oct-14 17:28N 29°35' W 090°37'0 0.0
2017-Oct-14 16:58N 29°35' W 090°37'0 0.0
2017-Oct-14 16:28N 29°35' W 090°37'0 0.0
2017-Oct-14 15:58N 29°35' W 090°37'0 0.0
2017-Oct-14 15:28N 29°35' W 090°37'0 0.0
2017-Oct-14 14:58N 29°35' W 090°37'0 0.0
2017-Oct-14 14:28N 29°35' W 090°37'0 0.0
2017-Oct-14 13:58N 29°35' W 090°37'0 0.0
2017-Oct-14 13:28N 29°35' W 090°37'0 0.0
2017-Oct-14 12:58N 29°35' W 090°37'0 0.0
2017-Oct-14 12:28N 29°35' W 090°37'0 0.0
2017-Oct-14 11:58N 29°35' W 090°37'0 0.0
2017-Oct-14 11:28N 29°35' W 090°37'0 0.0
2017-Oct-14 10:58N 29°35' W 090°37'0 0.0
2017-Oct-14 10:28N 29°35' W 090°37'0 0.0
2017-Oct-14 09:58N 29°35' W 090°37'0 0.0
2017-Oct-14 09:28N 29°35' W 090°37'0 0.0
2017-Oct-14 08:58N 29°35' W 090°37'0 0.0
2017-Oct-14 08:28N 29°35' W 090°37'0 0.0
2017-Oct-14 07:58N 29°35' W 090°37'0 0.0
2017-Oct-14 07:28N 29°35' W 090°37'0 0.0
2017-Oct-14 06:58N 29°35' W 090°37'0 0.0
2017-Oct-14 06:28N 29°35' W 090°37'0 0.0
2017-Oct-14 05:58N 29°35' W 090°37'0 0.0
2017-Oct-14 05:28N 29°35' W 090°37'0 0.0
2017-Oct-14 04:58N 29°35' W 090°37'0 0.0
2017-Oct-14 04:28N 29°35' W 090°37'0 0.0
2017-Oct-14 03:58N 29°35' W 090°37'0 0.0
2017-Oct-14 03:28N 29°35' W 090°37'0 0.0
2017-Oct-14 02:58N 29°35' W 090°37'0 0.0
2017-Oct-14 02:28N 29°35' W 090°37'0 0.0
2017-Oct-14 01:58N 29°35' W 090°37'0 0.0
2017-Oct-14 01:28N 29°35' W 090°37'0 0.0
2017-Oct-14 00:58N 29°35' W 090°37'0 0.0
2017-Oct-14 00:28N 29°35' W 090°37'0 0.0
2017-Oct-13 23:58N 29°35' W 090°37'0 0.0
2017-Oct-13 23:28N 29°35' W 090°37'0 0.0
2017-Oct-13 22:58N 29°35' W 090°37'0 0.0
2017-Oct-13 22:28N 29°35' W 090°37'0 0.0
2017-Oct-13 21:58N 29°35' W 090°37'0 0.0
2017-Oct-13 21:28N 29°35' W 090°37'0 0.0
2017-Oct-13 20:58N 29°35' W 090°37'0 0.0
2017-Oct-13 20:28N 29°35' W 090°37'0 0.0
2017-Oct-13 19:58N 29°35' W 090°37'0 0.0
2017-Oct-13 19:28N 29°35' W 090°37'0 0.0
2017-Oct-13 18:58N 29°35' W 090°37'0 0.0
2017-Oct-13 18:28N 29°35' W 090°37'0 0.0
2017-Oct-13 17:58N 29°35' W 090°37'0 0.0
2017-Oct-13 17:28N 29°35' W 090°37'0 0.0
2017-Oct-13 16:58N 29°35' W 090°37'0 0.0
2017-Oct-13 16:28N 29°35' W 090°37'0 0.0
2017-Oct-13 15:58N 29°35' W 090°37'0 0.0
2017-Oct-13 15:28N 29°35' W 090°37'0 0.0
2017-Oct-13 14:58N 29°35' W 090°37'0 0.0
2017-Oct-13 14:28N 29°35' W 090°37'0 0.0
2017-Oct-13 13:58N 29°35' W 090°37'0 0.0
2017-Oct-13 13:28N 29°35' W 090°37'0 0.0
2017-Oct-13 12:58N 29°35' W 090°37'0 0.0
2017-Oct-13 12:28N 29°35' W 090°37'0 0.0
2017-Oct-13 11:58N 29°35' W 090°37'0 0.0
2017-Oct-13 11:28N 29°35' W 090°37'0 0.0
2017-Oct-13 10:58N 29°35' W 090°37'0 0.0
2017-Oct-13 10:28N 29°35' W 090°37'0 0.0
2017-Oct-13 09:58N 29°35' W 090°37'0 0.0
2017-Oct-13 09:28N 29°35' W 090°37'0 0.0
2017-Oct-13 08:58N 29°35' W 090°37'0 0.0
2017-Oct-13 08:28N 29°35' W 090°37'0 0.0
2017-Oct-13 07:58N 29°35' W 090°37'0 0.0
2017-Oct-13 07:28N 29°35' W 090°37'0 0.0
2017-Oct-13 06:58N 29°35' W 090°37'0 0.0
2017-Oct-13 06:28N 29°35' W 090°37'0 0.0
2017-Oct-13 05:58N 29°35' W 090°37'0 0.0
2017-Oct-13 05:28N 29°35' W 090°37'0 0.0
2017-Oct-13 04:58N 29°35' W 090°37'0 0.0
2017-Oct-13 04:28N 29°35' W 090°37'0 0.0
2017-Oct-13 03:58N 29°35' W 090°37'0 0.0
2017-Oct-13 03:28N 29°35' W 090°37'0 0.0
2017-Oct-13 02:58N 29°35' W 090°37'0 0.0
2017-Oct-13 02:28N 29°35' W 090°37'0 0.0
2017-Oct-13 01:58N 29°35' W 090°37'0 0.0
2017-Oct-13 01:28N 29°35' W 090°37'0 0.0
2017-Oct-13 00:58N 29°35' W 090°37'0 0.0
2017-Oct-13 00:28N 29°35' W 090°37'0 0.0
2017-Oct-12 23:58N 29°35' W 090°37'0 0.0
2017-Oct-12 23:28N 29°35' W 090°37'0 0.0
2017-Oct-12 22:55N 29°35' W 090°37'0 0.0
2017-Oct-12 22:28N 29°35' W 090°37'0 0.0
2017-Oct-12 21:58N 29°35' W 090°37'0 0.0
2017-Oct-12 21:28N 29°35' W 090°37'0 0.0
2017-Oct-12 20:58N 29°35' W 090°37'0 0.0
2017-Oct-12 20:28N 29°35' W 090°37'0 0.0
2017-Oct-12 19:58N 29°35' W 090°37'0 0.0
2017-Oct-12 19:28N 29°35' W 090°37'0 0.0
2017-Oct-12 18:58N 29°35' W 090°37'0 0.0
2017-Oct-12 18:28N 29°35' W 090°37'0 0.0
2017-Oct-12 17:58N 29°35' W 090°37'0 0.0
2017-Oct-12 17:28N 29°35' W 090°37'0 0.0
2017-Oct-12 16:58N 29°35' W 090°37'0 0.0
2017-Oct-12 16:28N 29°35' W 090°37'0 0.0
2017-Oct-12 15:58N 29°35' W 090°37'0 0.0
2017-Oct-12 15:28N 29°35' W 090°37'0 0.0
2017-Oct-12 14:58N 29°35' W 090°37'0 0.0
2017-Oct-12 14:28N 29°35' W 090°37'0 0.0
2017-Oct-12 13:58N 29°35' W 090°37'0 0.0
2017-Oct-12 13:28N 29°35' W 090°37'0 0.0
2017-Oct-12 12:55N 29°35' W 090°37'0 0.0
2017-Oct-12 12:28N 29°35' W 090°37'0 0.0
2017-Oct-12 11:55N 29°35' W 090°37'0 0.0
2017-Oct-12 11:28N 29°35' W 090°37'0 0.0
2017-Oct-12 10:58N 29°35' W 090°37'0 0.0
2017-Oct-12 10:28N 29°35' W 090°37'0 0.0
2017-Oct-12 09:58N 29°35' W 090°37'0 0.0
2017-Oct-12 09:28N 29°35' W 090°37'0 0.0
2017-Oct-12 08:58N 29°35' W 090°37'0 0.0
2017-Oct-12 08:28N 29°35' W 090°37'0 0.0
2017-Oct-12 07:58N 29°35' W 090°37'0 0.0
2017-Oct-12 07:28N 29°35' W 090°37'0 0.0
2017-Oct-12 06:58N 29°35' W 090°37'0 0.0
2017-Oct-12 06:28N 29°35' W 090°37'0 0.0
2017-Oct-12 05:58N 29°35' W 090°37'0 0.0
2017-Oct-12 05:28N 29°35' W 090°37'0 0.0
2017-Oct-12 04:58N 29°35' W 090°37'0 0.0
2017-Oct-12 04:25N 29°35' W 090°37'0 0.0
2017-Oct-12 03:58N 29°35' W 090°37'0 0.0
2017-Oct-12 03:28N 29°35' W 090°37'0 0.0
2017-Oct-12 02:58N 29°35' W 090°37'0 0.0
2017-Oct-12 02:28N 29°35' W 090°37'0 0.0
2017-Oct-12 01:58N 29°35' W 090°37'0 0.0
2017-Oct-12 01:28N 29°35' W 090°37'0 0.0
2017-Oct-12 00:58N 29°35' W 090°37'0 0.0
2017-Oct-12 00:28N 29°35' W 090°37'0 0.0
2017-Oct-11 23:58N 29°35' W 090°37'0 0.0
2017-Oct-11 23:28N 29°35' W 090°37'0 0.0
2017-Oct-11 22:58N 29°35' W 090°37'0 0.0
2017-Oct-11 22:28N 29°35' W 090°37'0 0.0
2017-Oct-11 21:58N 29°35' W 090°37'0 0.0
2017-Oct-11 21:28N 29°35' W 090°37'0 0.0
2017-Oct-11 20:58N 29°35' W 090°37'0 0.0
2017-Oct-11 20:28N 29°35' W 090°37'0 0.0
2017-Oct-11 19:58N 29°35' W 090°37'0 0.0
2017-Oct-11 19:28N 29°35' W 090°37'0 0.0
2017-Oct-11 18:58N 29°35' W 090°37'0 0.0
2017-Oct-11 18:28N 29°35' W 090°37'0 0.0
2017-Oct-11 17:58N 29°35' W 090°37'0 0.0
2017-Oct-11 17:28N 29°35' W 090°37'0 0.0
2017-Oct-11 16:58N 29°35' W 090°37'0 0.0
2017-Oct-10 23:58N 29°35' W 090°37'0 0.0
2017-Oct-10 23:28N 29°35' W 090°37'0 0.0
2017-Oct-10 22:58N 29°35' W 090°37'0 0.0
2017-Oct-10 22:28N 29°35' W 090°37'0 0.0
2017-Oct-10 21:58N 29°35' W 090°37'0 0.0
2017-Oct-10 21:28N 29°35' W 090°37'0 0.0
2017-Oct-10 20:58N 29°35' W 090°37'0 0.1
2017-Oct-10 20:30N 29°35' W 090°37'0 0.1
2017-Oct-10 20:00N 29°35' W 090°37'3 6.5
2017-Oct-10 19:30N 29°36' W 090°40'2 4.1
2017-Oct-10 18:59N 29°37' W 090°42'0 0.0
2017-Oct-10 18:29N 29°37' W 090°42'0 0.0
2017-Oct-10 17:59N 29°37' W 090°42'0 0.0
2017-Oct-10 17:29N 29°37' W 090°42'0 0.0
2017-Oct-10 16:59N 29°37' W 090°42'0 0.0
2017-Oct-10 16:29N 29°37' W 090°42'0 0.8
2017-Oct-10 16:00N 29°37' W 090°43'0 0.0
2017-Oct-10 15:30N 29°37' W 090°43'0 0.0
2017-Oct-10 15:00N 29°37' W 090°43'0 0.0
2017-Oct-10 14:00N 29°37' W 090°43'0 0.0
2017-Oct-10 13:30N 29°37' W 090°43'0 0.0
2017-Oct-10 13:00N 29°37' W 090°43'0 0.0
2017-Oct-10 12:30N 29°37' W 090°43'0 0.0
2017-Oct-10 12:00N 29°37' W 090°43'0 0.0
2017-Oct-10 11:30N 29°37' W 090°43'0 0.0
2017-Oct-10 11:00N 29°37' W 090°43'0 0.0
2017-Oct-10 10:30N 29°37' W 090°43'0 0.0
2017-Oct-10 10:00N 29°37' W 090°43'0 0.4
2017-Oct-10 09:31N 29°37' W 090°42'0 0.5
2017-Oct-10 09:00N 29°37' W 090°43'3 5.4
2017-Oct-10 08:30N 29°34' W 090°43'3 6.1
2017-Oct-10 08:00N 29°32' W 090°46'4 7.4
2017-Oct-10 07:30N 29°32' W 090°51'  

Dump ship's entire track history